sensor_id;sensor_type;location;lat;lon;timestamp;P1;durP1;ratioP1;P2;durP2;ratioP2
60030;SDS011;45901;47.600;9.890;2023-01-19T00:01:04;8.93;;;5.57;;
60030;SDS011;45901;47.600;9.890;2023-01-19T00:03:33;8.83;;;5.10;;
60030;SDS011;45901;47.600;9.890;2023-01-19T00:06:03;8.07;;;5.50;;
60030;SDS011;45901;47.600;9.890;2023-01-19T00:08:31;12.00;;;5.23;;
60030;SDS011;45901;47.600;9.890;2023-01-19T00:10:59;10.30;;;5.67;;
60030;SDS011;45901;47.600;9.890;2023-01-19T00:13:26;10.53;;;6.07;;
60030;SDS011;45901;47.600;9.890;2023-01-19T00:15:55;10.60;;;5.27;;
60030;SDS011;45901;47.600;9.890;2023-01-19T00:18:22;10.03;;;5.50;;
60030;SDS011;45901;47.600;9.890;2023-01-19T00:20:50;11.03;;;5.43;;
60030;SDS011;45901;47.600;9.890;2023-01-19T00:23:17;9.70;;;6.10;;
60030;SDS011;45901;47.600;9.890;2023-01-19T00:25:45;8.27;;;5.17;;
60030;SDS011;45901;47.600;9.890;2023-01-19T00:28:13;10.13;;;5.63;;
60030;SDS011;45901;47.600;9.890;2023-01-19T00:30:42;12.20;;;5.93;;
60030;SDS011;45901;47.600;9.890;2023-01-19T00:33:11;10.40;;;5.50;;
60030;SDS011;45901;47.600;9.890;2023-01-19T00:35:39;10.53;;;6.23;;
60030;SDS011;45901;47.600;9.890;2023-01-19T00:38:07;10.40;;;5.57;;
60030;SDS011;45901;47.600;9.890;2023-01-19T00:40:36;11.90;;;6.03;;
60030;SDS011;45901;47.600;9.890;2023-01-19T00:43:03;9.70;;;5.70;;
60030;SDS011;45901;47.600;9.890;2023-01-19T00:45:30;11.17;;;6.13;;
60030;SDS011;45901;47.600;9.890;2023-01-19T00:47:59;12.27;;;5.80;;
60030;SDS011;45901;47.600;9.890;2023-01-19T00:50:28;11.07;;;5.97;;
60030;SDS011;45901;47.600;9.890;2023-01-19T00:52:57;14.90;;;6.97;;
60030;SDS011;45901;47.600;9.890;2023-01-19T00:55:25;12.87;;;5.40;;
60030;SDS011;45901;47.600;9.890;2023-01-19T00:57:53;10.17;;;5.63;;
60030;SDS011;45901;47.600;9.890;2023-01-19T01:00:20;8.77;;;5.50;;
60030;SDS011;45901;47.600;9.890;2023-01-19T01:02:49;11.40;;;6.47;;
60030;SDS011;45901;47.600;9.890;2023-01-19T01:05:17;11.07;;;6.00;;
60030;SDS011;45901;47.600;9.890;2023-01-19T01:07:47;9.37;;;5.83;;
60030;SDS011;45901;47.600;9.890;2023-01-19T01:10:15;16.43;;;5.80;;
60030;SDS011;45901;47.600;9.890;2023-01-19T01:12:45;10.47;;;6.27;;
60030;SDS011;45901;47.600;9.890;2023-01-19T01:15:13;13.70;;;5.17;;
60030;SDS011;45901;47.600;9.890;2023-01-19T01:17:42;9.50;;;5.80;;
60030;SDS011;45901;47.600;9.890;2023-01-19T01:20:14;12.37;;;5.70;;
60030;SDS011;45901;47.600;9.890;2023-01-19T01:22:44;9.70;;;5.27;;
60030;SDS011;45901;47.600;9.890;2023-01-19T01:25:14;8.97;;;5.53;;
60030;SDS011;45901;47.600;9.890;2023-01-19T01:27:43;10.03;;;5.37;;
60030;SDS011;45901;47.600;9.890;2023-01-19T01:30:11;9.77;;;5.60;;
60030;SDS011;45901;47.600;9.890;2023-01-19T01:32:40;8.43;;;6.20;;
60030;SDS011;45901;47.600;9.890;2023-01-19T01:35:08;12.47;;;6.20;;
60030;SDS011;45901;47.600;9.890;2023-01-19T01:37:36;11.23;;;5.77;;
60030;SDS011;45901;47.600;9.890;2023-01-19T01:40:06;7.87;;;5.37;;
60030;SDS011;45901;47.600;9.890;2023-01-19T01:42:36;11.23;;;5.60;;
60030;SDS011;45901;47.600;9.890;2023-01-19T01:45:06;8.90;;;5.00;;
60030;SDS011;45901;47.600;9.890;2023-01-19T01:47:53;8.07;;;4.90;;
60030;SDS011;45901;47.600;9.890;2023-01-19T01:50:25;9.03;;;5.37;;
60030;SDS011;45901;47.600;9.890;2023-01-19T01:52:56;9.53;;;5.50;;
60030;SDS011;45901;47.600;9.890;2023-01-19T01:55:29;15.40;;;5.83;;
60030;SDS011;45901;47.600;9.890;2023-01-19T01:57:58;10.27;;;5.43;;
60030;SDS011;45901;47.600;9.890;2023-01-19T02:00:29;11.73;;;5.60;;
60030;SDS011;45901;47.600;9.890;2023-01-19T02:03:17;10.87;;;5.87;;
60030;SDS011;45901;47.600;9.890;2023-01-19T02:05:44;10.23;;;5.53;;
60030;SDS011;45901;47.600;9.890;2023-01-19T02:08:12;11.27;;;5.27;;
60030;SDS011;45901;47.600;9.890;2023-01-19T02:11:03;8.87;;;5.83;;
60030;SDS011;45901;47.600;9.890;2023-01-19T02:13:49;11.50;;;5.53;;
60030;SDS011;45901;47.600;9.890;2023-01-19T02:16:16;10.00;;;5.77;;
60030;SDS011;45901;47.600;9.890;2023-01-19T02:18:44;10.83;;;5.87;;
60030;SDS011;45901;47.600;9.890;2023-01-19T02:21:13;10.20;;;5.53;;
60030;SDS011;45901;47.600;9.890;2023-01-19T02:23:47;8.10;;;5.00;;
60030;SDS011;45901;47.600;9.890;2023-01-19T02:26:17;12.90;;;5.07;;
60030;SDS011;45901;47.600;9.890;2023-01-19T02:28:49;9.73;;;4.83;;
60030;SDS011;45901;47.600;9.890;2023-01-19T02:31:21;7.87;;;4.57;;
60030;SDS011;45901;47.600;9.890;2023-01-19T02:33:49;8.53;;;5.10;;
60030;SDS011;45901;47.600;9.890;2023-01-19T02:36:18;8.83;;;4.60;;
60030;SDS011;45901;47.600;9.890;2023-01-19T02:38:51;8.00;;;4.93;;
60030;SDS011;45901;47.600;9.890;2023-01-19T02:41:23;9.70;;;4.70;;
60030;SDS011;45901;47.600;9.890;2023-01-19T02:43:56;10.63;;;4.60;;
60030;SDS011;45901;47.600;9.890;2023-01-19T02:46:24;10.27;;;4.73;;
60030;SDS011;45901;47.600;9.890;2023-01-19T02:48:52;6.70;;;4.17;;
60030;SDS011;45901;47.600;9.890;2023-01-19T02:51:24;12.20;;;4.97;;
60030;SDS011;45901;47.600;9.890;2023-01-19T02:57:12;11.63;;;5.33;;
60030;SDS011;45901;47.600;9.890;2023-01-19T03:00:03;11.87;;;5.33;;
60030;SDS011;45901;47.600;9.890;2023-01-19T03:02:49;8.10;;;5.00;;
60030;SDS011;45901;47.600;9.890;2023-01-19T03:05:38;9.23;;;5.40;;
60030;SDS011;45901;47.600;9.890;2023-01-19T03:08:24;14.80;;;6.03;;
60030;SDS011;45901;47.600;9.890;2023-01-19T03:11:07;11.87;;;5.70;;
60030;SDS011;45901;47.600;9.890;2023-01-19T03:13:41;11.17;;;6.10;;
60030;SDS011;45901;47.600;9.890;2023-01-19T03:16:14;11.83;;;6.00;;
60030;SDS011;45901;47.600;9.890;2023-01-19T03:18:47;10.33;;;6.13;;
60030;SDS011;45901;47.600;9.890;2023-01-19T03:21:18;11.60;;;5.77;;
60030;SDS011;45901;47.600;9.890;2023-01-19T03:23:50;13.67;;;6.30;;
60030;SDS011;45901;47.600;9.890;2023-01-19T03:26:22;9.63;;;6.17;;
60030;SDS011;45901;47.600;9.890;2023-01-19T03:28:53;10.37;;;6.27;;
60030;SDS011;45901;47.600;9.890;2023-01-19T03:31:23;15.03;;;6.33;;
60030;SDS011;45901;47.600;9.890;2023-01-19T03:33:54;12.10;;;7.17;;
60030;SDS011;45901;47.600;9.890;2023-01-19T03:36:28;10.83;;;6.93;;
60030;SDS011;45901;47.600;9.890;2023-01-19T03:39:00;10.37;;;6.53;;
60030;SDS011;45901;47.600;9.890;2023-01-19T03:41:33;13.90;;;6.73;;
60030;SDS011;45901;47.600;9.890;2023-01-19T03:44:03;15.30;;;6.43;;
60030;SDS011;45901;47.600;9.890;2023-01-19T03:46:32;12.37;;;6.30;;
60030;SDS011;45901;47.600;9.890;2023-01-19T03:49:00;14.90;;;8.33;;
60030;SDS011;45901;47.600;9.890;2023-01-19T03:51:27;15.93;;;7.93;;
60030;SDS011;45901;47.600;9.890;2023-01-19T03:53:54;16.27;;;9.37;;
60030;SDS011;45901;47.600;9.890;2023-01-19T03:56:22;18.00;;;9.63;;
60030;SDS011;45901;47.600;9.890;2023-01-19T03:58:52;17.90;;;9.53;;
60030;SDS011;45901;47.600;9.890;2023-01-19T04:01:19;16.13;;;8.80;;
60030;SDS011;45901;47.600;9.890;2023-01-19T04:03:48;17.53;;;9.90;;
60030;SDS011;45901;47.600;9.890;2023-01-19T04:06:16;19.63;;;10.03;;
60030;SDS011;45901;47.600;9.890;2023-01-19T04:08:46;16.07;;;10.03;;
60030;SDS011;45901;47.600;9.890;2023-01-19T04:11:14;18.60;;;10.37;;
60030;SDS011;45901;47.600;9.890;2023-01-19T04:13:42;18.93;;;10.83;;
60030;SDS011;45901;47.600;9.890;2023-01-19T04:16:11;22.03;;;10.93;;
60030;SDS011;45901;47.600;9.890;2023-01-19T04:18:39;15.93;;;10.47;;
60030;SDS011;45901;47.600;9.890;2023-01-19T04:21:07;19.33;;;10.47;;
60030;SDS011;45901;47.600;9.890;2023-01-19T04:23:35;15.83;;;10.17;;
60030;SDS011;45901;47.600;9.890;2023-01-19T04:26:03;17.87;;;9.93;;
60030;SDS011;45901;47.600;9.890;2023-01-19T04:28:33;16.47;;;9.80;;
60030;SDS011;45901;47.600;9.890;2023-01-19T04:31:01;17.23;;;9.47;;
60030;SDS011;45901;47.600;9.890;2023-01-19T04:33:30;13.70;;;8.40;;
60030;SDS011;45901;47.600;9.890;2023-01-19T04:35:58;17.10;;;9.20;;
60030;SDS011;45901;47.600;9.890;2023-01-19T04:38:25;14.83;;;8.07;;
60030;SDS011;45901;47.600;9.890;2023-01-19T04:40:53;14.77;;;8.33;;
60030;SDS011;45901;47.600;9.890;2023-01-19T04:43:21;13.53;;;8.57;;
60030;SDS011;45901;47.600;9.890;2023-01-19T04:45:49;12.60;;;7.83;;
60030;SDS011;45901;47.600;9.890;2023-01-19T04:48:18;14.47;;;8.20;;
60030;SDS011;45901;47.600;9.890;2023-01-19T04:50:47;15.03;;;8.23;;
60030;SDS011;45901;47.600;9.890;2023-01-19T04:53:18;13.47;;;8.80;;
60030;SDS011;45901;47.600;9.890;2023-01-19T04:55:45;14.73;;;7.60;;
60030;SDS011;45901;47.600;9.890;2023-01-19T04:58:12;16.93;;;8.10;;
60030;SDS011;45901;47.600;9.890;2023-01-19T05:00:39;13.83;;;8.83;;
60030;SDS011;45901;47.600;9.890;2023-01-19T05:03:07;13.30;;;8.30;;
60030;SDS011;45901;47.600;9.890;2023-01-19T05:05:34;15.80;;;8.23;;
60030;SDS011;45901;47.600;9.890;2023-01-19T05:08:03;14.63;;;7.73;;
60030;SDS011;45901;47.600;9.890;2023-01-19T05:10:31;14.97;;;8.60;;
60030;SDS011;45901;47.600;9.890;2023-01-19T05:12:58;13.60;;;7.70;;
60030;SDS011;45901;47.600;9.890;2023-01-19T05:15:25;13.03;;;7.77;;
60030;SDS011;45901;47.600;9.890;2023-01-19T05:17:53;12.27;;;7.70;;
60030;SDS011;45901;47.600;9.890;2023-01-19T05:20:22;14.27;;;8.03;;
60030;SDS011;45901;47.600;9.890;2023-01-19T05:22:49;15.80;;;8.23;;
60030;SDS011;45901;47.600;9.890;2023-01-19T05:25:19;14.03;;;7.87;;
60030;SDS011;45901;47.600;9.890;2023-01-19T05:27:46;12.77;;;8.60;;
60030;SDS011;45901;47.600;9.890;2023-01-19T05:30:13;12.93;;;8.07;;
60030;SDS011;45901;47.600;9.890;2023-01-19T05:32:41;17.17;;;10.03;;
60030;SDS011;45901;47.600;9.890;2023-01-19T05:35:09;16.93;;;9.17;;
60030;SDS011;45901;47.600;9.890;2023-01-19T05:37:38;15.90;;;8.60;;
60030;SDS011;45901;47.600;9.890;2023-01-19T05:40:06;15.77;;;8.77;;
60030;SDS011;45901;47.600;9.890;2023-01-19T05:42:36;21.30;;;10.07;;
60030;SDS011;45901;47.600;9.890;2023-01-19T05:45:04;17.37;;;9.27;;
60030;SDS011;45901;47.600;9.890;2023-01-19T05:47:32;20.83;;;9.73;;
60030;SDS011;45901;47.600;9.890;2023-01-19T05:49:59;17.57;;;8.87;;
60030;SDS011;45901;47.600;9.890;2023-01-19T05:52:26;15.97;;;9.27;;
60030;SDS011;45901;47.600;9.890;2023-01-19T05:54:54;15.40;;;9.50;;
60030;SDS011;45901;47.600;9.890;2023-01-19T05:57:21;13.13;;;8.70;;
60030;SDS011;45901;47.600;9.890;2023-01-19T05:59:51;15.53;;;8.70;;
60030;SDS011;45901;47.600;9.890;2023-01-19T06:02:18;13.53;;;8.10;;
60030;SDS011;45901;47.600;9.890;2023-01-19T06:04:45;15.53;;;8.83;;
60030;SDS011;45901;47.600;9.890;2023-01-19T06:07:12;13.07;;;8.20;;
60030;SDS011;45901;47.600;9.890;2023-01-19T06:09:40;16.23;;;8.90;;
60030;SDS011;45901;47.600;9.890;2023-01-19T06:12:07;14.77;;;8.17;;
60030;SDS011;45901;47.600;9.890;2023-01-19T06:14:34;16.67;;;8.97;;
60030;SDS011;45901;47.600;9.890;2023-01-19T06:17:04;14.53;;;8.77;;
60030;SDS011;45901;47.600;9.890;2023-01-19T06:19:31;16.40;;;9.50;;
60030;SDS011;45901;47.600;9.890;2023-01-19T06:21:59;13.30;;;8.17;;
60030;SDS011;45901;47.600;9.890;2023-01-19T06:24:26;14.93;;;8.40;;
60030;SDS011;45901;47.600;9.890;2023-01-19T06:26:54;15.97;;;7.80;;
60030;SDS011;45901;47.600;9.890;2023-01-19T06:29:21;12.27;;;8.10;;
60030;SDS011;45901;47.600;9.890;2023-01-19T06:31:48;12.67;;;7.90;;
60030;SDS011;45901;47.600;9.890;2023-01-19T06:34:17;19.83;;;9.37;;
60030;SDS011;45901;47.600;9.890;2023-01-19T06:36:44;16.47;;;9.30;;
60030;SDS011;45901;47.600;9.890;2023-01-19T06:39:12;12.67;;;7.93;;
60030;SDS011;45901;47.600;9.890;2023-01-19T06:41:39;15.30;;;8.20;;
60030;SDS011;45901;47.600;9.890;2023-01-19T06:44:06;13.87;;;7.47;;
60030;SDS011;45901;47.600;9.890;2023-01-19T06:46:34;16.40;;;7.80;;
60030;SDS011;45901;47.600;9.890;2023-01-19T06:49:01;13.17;;;7.63;;
60030;SDS011;45901;47.600;9.890;2023-01-19T06:51:30;12.57;;;7.73;;
60030;SDS011;45901;47.600;9.890;2023-01-19T06:53:57;13.27;;;7.27;;
60030;SDS011;45901;47.600;9.890;2023-01-19T06:56:24;13.37;;;8.53;;
60030;SDS011;45901;47.600;9.890;2023-01-19T06:58:52;13.70;;;7.60;;
60030;SDS011;45901;47.600;9.890;2023-01-19T07:01:19;15.67;;;7.17;;
60030;SDS011;45901;47.600;9.890;2023-01-19T07:03:46;15.23;;;7.53;;
60030;SDS011;45901;47.600;9.890;2023-01-19T07:06:13;17.43;;;6.50;;
60030;SDS011;45901;47.600;9.890;2023-01-19T07:08:42;12.97;;;6.73;;
60030;SDS011;45901;47.600;9.890;2023-01-19T07:11:10;9.70;;;6.20;;
60030;SDS011;45901;47.600;9.890;2023-01-19T07:13:38;14.80;;;6.53;;
60030;SDS011;45901;47.600;9.890;2023-01-19T07:16:08;10.90;;;6.20;;
60030;SDS011;45901;47.600;9.890;2023-01-19T07:18:38;9.07;;;6.10;;
60030;SDS011;45901;47.600;9.890;2023-01-19T07:21:06;12.50;;;6.20;;
60030;SDS011;45901;47.600;9.890;2023-01-19T07:23:33;11.03;;;6.13;;
60030;SDS011;45901;47.600;9.890;2023-01-19T07:26:03;10.63;;;6.03;;
60030;SDS011;45901;47.600;9.890;2023-01-19T07:28:31;11.53;;;6.10;;
60030;SDS011;45901;47.600;9.890;2023-01-19T07:30:58;8.40;;;5.40;;
60030;SDS011;45901;47.600;9.890;2023-01-19T07:33:26;10.27;;;6.07;;
60030;SDS011;45901;47.600;9.890;2023-01-19T07:35:53;12.37;;;6.20;;
60030;SDS011;45901;47.600;9.890;2023-01-19T07:38:20;13.40;;;7.60;;
60030;SDS011;45901;47.600;9.890;2023-01-19T07:40:48;11.27;;;7.27;;
60030;SDS011;45901;47.600;9.890;2023-01-19T07:43:16;10.67;;;6.60;;
60030;SDS011;45901;47.600;9.890;2023-01-19T07:45:43;10.73;;;6.13;;
60030;SDS011;45901;47.600;9.890;2023-01-19T07:48:11;11.00;;;6.27;;
60030;SDS011;45901;47.600;9.890;2023-01-19T07:50:38;11.80;;;6.87;;
60030;SDS011;45901;47.600;9.890;2023-01-19T07:53:06;11.03;;;6.83;;
60030;SDS011;45901;47.600;9.890;2023-01-19T07:55:35;13.67;;;7.63;;
60030;SDS011;45901;47.600;9.890;2023-01-19T07:58:03;18.70;;;7.90;;
60030;SDS011;45901;47.600;9.890;2023-01-19T08:00:33;12.27;;;7.43;;
60030;SDS011;45901;47.600;9.890;2023-01-19T08:03:02;13.20;;;7.30;;
60030;SDS011;45901;47.600;9.890;2023-01-19T08:05:30;16.30;;;8.07;;
60030;SDS011;45901;47.600;9.890;2023-01-19T08:07:58;18.73;;;9.00;;
60030;SDS011;45901;47.600;9.890;2023-01-19T08:10:26;17.10;;;7.00;;
60030;SDS011;45901;47.600;9.890;2023-01-19T08:12:54;14.40;;;7.27;;
60030;SDS011;45901;47.600;9.890;2023-01-19T08:15:23;16.47;;;8.60;;
60030;SDS011;45901;47.600;9.890;2023-01-19T08:17:55;13.27;;;7.70;;
60030;SDS011;45901;47.600;9.890;2023-01-19T08:20:24;17.87;;;7.37;;
60030;SDS011;45901;47.600;9.890;2023-01-19T08:22:52;30.97;;;13.43;;
60030;SDS011;45901;47.600;9.890;2023-01-19T08:25:24;30.97;;;13.63;;
60030;SDS011;45901;47.600;9.890;2023-01-19T08:27:53;15.93;;;8.90;;
60030;SDS011;45901;47.600;9.890;2023-01-19T08:30:21;14.17;;;7.97;;
60030;SDS011;45901;47.600;9.890;2023-01-19T08:32:51;16.50;;;8.43;;
60030;SDS011;45901;47.600;9.890;2023-01-19T08:35:20;23.43;;;10.50;;
60030;SDS011;45901;47.600;9.890;2023-01-19T08:37:47;16.87;;;8.37;;
60030;SDS011;45901;47.600;9.890;2023-01-19T08:40:15;21.07;;;10.07;;
60030;SDS011;45901;47.600;9.890;2023-01-19T08:42:44;14.33;;;7.67;;
60030;SDS011;45901;47.600;9.890;2023-01-19T08:45:11;15.40;;;6.83;;
60030;SDS011;45901;47.600;9.890;2023-01-19T08:47:38;10.97;;;6.93;;
60030;SDS011;45901;47.600;9.890;2023-01-19T08:50:06;13.20;;;8.10;;
60030;SDS011;45901;47.600;9.890;2023-01-19T08:52:36;12.80;;;7.73;;
60030;SDS011;45901;47.600;9.890;2023-01-19T08:55:03;11.57;;;7.40;;
60030;SDS011;45901;47.600;9.890;2023-01-19T08:57:32;13.77;;;7.87;;
60030;SDS011;45901;47.600;9.890;2023-01-19T08:59:59;12.73;;;6.67;;
60030;SDS011;45901;47.600;9.890;2023-01-19T09:02:28;15.47;;;8.13;;
60030;SDS011;45901;47.600;9.890;2023-01-19T09:04:55;13.00;;;7.17;;
60030;SDS011;45901;47.600;9.890;2023-01-19T09:07:23;11.57;;;6.40;;
60030;SDS011;45901;47.600;9.890;2023-01-19T09:09:51;12.97;;;7.20;;
60030;SDS011;45901;47.600;9.890;2023-01-19T09:12:18;12.60;;;6.40;;
60030;SDS011;45901;47.600;9.890;2023-01-19T09:14:46;11.77;;;6.50;;
60030;SDS011;45901;47.600;9.890;2023-01-19T09:17:13;9.90;;;5.77;;
60030;SDS011;45901;47.600;9.890;2023-01-19T09:19:42;12.87;;;5.53;;
60030;SDS011;45901;47.600;9.890;2023-01-19T09:22:09;9.17;;;5.10;;
60030;SDS011;45901;47.600;9.890;2023-01-19T09:24:36;7.97;;;4.90;;
60030;SDS011;45901;47.600;9.890;2023-01-19T09:27:05;12.27;;;5.63;;
60030;SDS011;45901;47.600;9.890;2023-01-19T09:29:32;10.63;;;6.40;;
60030;SDS011;45901;47.600;9.890;2023-01-19T09:32:00;9.50;;;5.20;;
60030;SDS011;45901;47.600;9.890;2023-01-19T09:34:27;8.43;;;4.97;;
60030;SDS011;45901;47.600;9.890;2023-01-19T09:36:55;13.37;;;6.23;;
60030;SDS011;45901;47.600;9.890;2023-01-19T09:39:22;11.57;;;6.03;;
60030;SDS011;45901;47.600;9.890;2023-01-19T09:41:53;9.93;;;5.00;;
60030;SDS011;45901;47.600;9.890;2023-01-19T09:44:31;10.37;;;4.97;;
60030;SDS011;45901;47.600;9.890;2023-01-19T09:47:00;11.23;;;6.07;;
60030;SDS011;45901;47.600;9.890;2023-01-19T09:49:39;9.13;;;5.43;;
60030;SDS011;45901;47.600;9.890;2023-01-19T09:52:13;11.37;;;5.80;;
60030;SDS011;45901;47.600;9.890;2023-01-19T09:54:42;8.00;;;4.60;;
60030;SDS011;45901;47.600;9.890;2023-01-19T09:57:17;7.83;;;4.27;;
60030;SDS011;45901;47.600;9.890;2023-01-19T09:59:47;6.63;;;4.40;;
60030;SDS011;45901;47.600;9.890;2023-01-19T10:02:21;9.20;;;5.60;;
60030;SDS011;45901;47.600;9.890;2023-01-19T10:04:58;10.10;;;5.40;;
60030;SDS011;45901;47.600;9.890;2023-01-19T10:07:40;7.87;;;3.97;;
60030;SDS011;45901;47.600;9.890;2023-01-19T10:10:23;6.83;;;3.90;;
60030;SDS011;45901;47.600;9.890;2023-01-19T10:16:08;9.93;;;4.60;;
60030;SDS011;45901;47.600;9.890;2023-01-19T10:18:50;6.70;;;4.40;;
60030;SDS011;45901;47.600;9.890;2023-01-19T10:21:23;13.70;;;6.60;;
60030;SDS011;45901;47.600;9.890;2023-01-19T10:23:57;11.93;;;5.80;;
60030;SDS011;45901;47.600;9.890;2023-01-19T10:26:32;13.43;;;6.70;;
60030;SDS011;45901;47.600;9.890;2023-01-19T10:29:03;11.87;;;6.33;;
60030;SDS011;45901;47.600;9.890;2023-01-19T10:31:38;6.40;;;4.03;;
60030;SDS011;45901;47.600;9.890;2023-01-19T10:34:08;31.23;;;11.90;;
60030;SDS011;45901;47.600;9.890;2023-01-19T10:36:42;18.57;;;7.60;;
60030;SDS011;45901;47.600;9.890;2023-01-19T10:39:12;15.03;;;6.83;;
60030;SDS011;45901;47.600;9.890;2023-01-19T10:41:45;9.63;;;4.90;;
60030;SDS011;45901;47.600;9.890;2023-01-19T10:44:21;10.03;;;4.67;;
60030;SDS011;45901;47.600;9.890;2023-01-19T10:46:51;7.57;;;4.27;;
60030;SDS011;45901;47.600;9.890;2023-01-19T10:49:25;7.37;;;3.97;;
60030;SDS011;45901;47.600;9.890;2023-01-19T10:51:55;9.03;;;4.47;;
60030;SDS011;45901;47.600;9.890;2023-01-19T10:54:24;8.33;;;4.20;;
60030;SDS011;45901;47.600;9.890;2023-01-19T10:56:55;9.53;;;5.07;;
60030;SDS011;45901;47.600;9.890;2023-01-19T10:59:32;11.10;;;6.00;;
60030;SDS011;45901;47.600;9.890;2023-01-19T11:02:16;11.00;;;5.37;;
60030;SDS011;45901;47.600;9.890;2023-01-19T11:04:47;7.73;;;4.53;;
60030;SDS011;45901;47.600;9.890;2023-01-19T11:07:18;6.10;;;3.60;;
60030;SDS011;45901;47.600;9.890;2023-01-19T11:09:47;8.00;;;4.10;;
60030;SDS011;45901;47.600;9.890;2023-01-19T11:12:16;6.80;;;4.03;;
60030;SDS011;45901;47.600;9.890;2023-01-19T11:14:45;9.60;;;4.93;;
60030;SDS011;45901;47.600;9.890;2023-01-19T11:17:20;8.47;;;4.10;;
60030;SDS011;45901;47.600;9.890;2023-01-19T11:19:54;6.67;;;3.00;;
60030;SDS011;45901;47.600;9.890;2023-01-19T11:22:25;6.87;;;2.70;;
60030;SDS011;45901;47.600;9.890;2023-01-19T11:24:59;5.23;;;3.00;;
60030;SDS011;45901;47.600;9.890;2023-01-19T11:27:29;5.90;;;3.30;;
60030;SDS011;45901;47.600;9.890;2023-01-19T11:30:00;12.83;;;6.30;;
60030;SDS011;45901;47.600;9.890;2023-01-19T11:32:35;9.60;;;4.90;;
60030;SDS011;45901;47.600;9.890;2023-01-19T11:40:50;7.83;;;3.13;;
60030;SDS011;45901;47.600;9.890;2023-01-19T11:43:20;5.20;;;3.30;;
60030;SDS011;45901;47.600;9.890;2023-01-19T11:45:49;8.73;;;3.83;;
60030;SDS011;45901;47.600;9.890;2023-01-19T11:48:21;9.33;;;4.80;;
60030;SDS011;45901;47.600;9.890;2023-01-19T11:50:54;7.93;;;4.90;;
60030;SDS011;45901;47.600;9.890;2023-01-19T11:53:27;7.03;;;4.50;;
60030;SDS011;45901;47.600;9.890;2023-01-19T11:55:59;7.97;;;4.50;;
60030;SDS011;45901;47.600;9.890;2023-01-19T11:58:30;9.90;;;3.80;;
60030;SDS011;45901;47.600;9.890;2023-01-19T12:01:04;9.53;;;4.67;;
60030;SDS011;45901;47.600;9.890;2023-01-19T12:03:44;7.73;;;3.70;;
60030;SDS011;45901;47.600;9.890;2023-01-19T12:06:18;7.43;;;4.27;;
60030;SDS011;45901;47.600;9.890;2023-01-19T12:08:50;7.90;;;3.83;;
60030;SDS011;45901;47.600;9.890;2023-01-19T12:11:22;7.97;;;4.00;;
60030;SDS011;45901;47.600;9.890;2023-01-19T12:13:58;7.33;;;4.00;;
60030;SDS011;45901;47.600;9.890;2023-01-19T12:16:27;7.87;;;4.43;;
60030;SDS011;45901;47.600;9.890;2023-01-19T12:18:59;7.50;;;3.80;;
60030;SDS011;45901;47.600;9.890;2023-01-19T12:21:30;6.60;;;4.43;;
60030;SDS011;45901;47.600;9.890;2023-01-19T12:24:00;17.17;;;7.03;;
60030;SDS011;45901;47.600;9.890;2023-01-19T12:26:40;7.97;;;4.47;;
60030;SDS011;45901;47.600;9.890;2023-01-19T12:29:17;8.23;;;4.93;;
60030;SDS011;45901;47.600;9.890;2023-01-19T12:34:56;7.43;;;5.17;;
60030;SDS011;45901;47.600;9.890;2023-01-19T12:40:23;9.00;;;4.93;;
60030;SDS011;45901;47.600;9.890;2023-01-19T12:42:57;8.90;;;4.60;;
60030;SDS011;45901;47.600;9.890;2023-01-19T12:45:30;7.00;;;4.13;;
60030;SDS011;45901;47.600;9.890;2023-01-19T12:47:58;10.93;;;4.60;;
60030;SDS011;45901;47.600;9.890;2023-01-19T12:50:29;10.17;;;4.50;;
60030;SDS011;45901;47.600;9.890;2023-01-19T12:53:02;8.20;;;4.50;;
60030;SDS011;45901;47.600;9.890;2023-01-19T12:55:41;8.97;;;4.90;;
60030;SDS011;45901;47.600;9.890;2023-01-19T12:58:12;8.87;;;3.97;;
60030;SDS011;45901;47.600;9.890;2023-01-19T16:03:09;22.07;;;10.97;;
60030;SDS011;45901;47.600;9.890;2023-01-19T16:21:00;15.70;;;8.57;;
60030;SDS011;45901;47.600;9.890;2023-01-19T16:27:45;10.23;;;5.30;;
60030;SDS011;45901;47.600;9.890;2023-01-19T16:36:15;14.73;;;8.80;;
60030;SDS011;45901;47.600;9.890;2023-01-19T16:38:45;16.93;;;9.30;;
60030;SDS011;45901;47.600;9.890;2023-01-19T16:41:13;24.00;;;11.80;;
60030;SDS011;45901;47.600;9.890;2023-01-19T16:43:54;27.67;;;14.03;;
60030;SDS011;45901;47.600;9.890;2023-01-19T16:46:49;38.87;;;18.03;;
60030;SDS011;45901;47.600;9.890;2023-01-19T17:01:08;30.10;;;15.73;;
60030;SDS011;45901;47.600;9.890;2023-01-19T17:46:05;57.13;;;23.90;;
60030;SDS011;45901;47.600;9.890;2023-01-19T17:48:32;23.20;;;12.50;;
60030;SDS011;45901;47.600;9.890;2023-01-19T17:51:00;15.23;;;8.43;;
60030;SDS011;45901;47.600;9.890;2023-01-19T17:53:30;15.40;;;7.60;;
60030;SDS011;45901;47.600;9.890;2023-01-19T17:56:03;15.93;;;7.90;;
60030;SDS011;45901;47.600;9.890;2023-01-19T18:02:01;23.57;;;10.70;;
60030;SDS011;45901;47.600;9.890;2023-01-19T18:04:29;19.27;;;10.47;;
60030;SDS011;45901;47.600;9.890;2023-01-19T18:06:56;25.27;;;12.97;;
60030;SDS011;45901;47.600;9.890;2023-01-19T18:09:24;26.53;;;13.47;;
60030;SDS011;45901;47.600;9.890;2023-01-19T18:11:54;27.43;;;13.23;;
60030;SDS011;45901;47.600;9.890;2023-01-19T18:14:51;24.37;;;12.43;;
60030;SDS011;45901;47.600;9.890;2023-01-19T18:17:19;27.30;;;13.70;;
60030;SDS011;45901;47.600;9.890;2023-01-19T18:19:49;28.67;;;13.20;;
60030;SDS011;45901;47.600;9.890;2023-01-19T18:22:20;25.27;;;11.57;;
60030;SDS011;45901;47.600;9.890;2023-01-19T18:24:51;14.93;;;8.07;;
60030;SDS011;45901;47.600;9.890;2023-01-19T18:27:55;10.20;;;6.10;;
60030;SDS011;45901;47.600;9.890;2023-01-19T18:30:38;16.67;;;9.13;;
60030;SDS011;45901;47.600;9.890;2023-01-19T18:33:08;16.00;;;8.87;;
60030;SDS011;45901;47.600;9.890;2023-01-19T18:36:58;21.73;;;10.63;;
60030;SDS011;45901;47.600;9.890;2023-01-19T18:43:22;12.30;;;6.83;;
60030;SDS011;45901;47.600;9.890;2023-01-19T18:46:02;10.20;;;5.93;;
60030;SDS011;45901;47.600;9.890;2023-01-19T18:48:39;14.00;;;6.10;;
60030;SDS011;45901;47.600;9.890;2023-01-19T18:51:21;15.47;;;8.17;;
60030;SDS011;45901;47.600;9.890;2023-01-19T18:54:20;16.93;;;9.37;;
60030;SDS011;45901;47.600;9.890;2023-01-19T18:56:54;17.80;;;9.63;;
60030;SDS011;45901;47.600;9.890;2023-01-19T18:59:31;17.43;;;9.73;;
60030;SDS011;45901;47.600;9.890;2023-01-19T19:13:58;18.27;;;10.00;;
60030;SDS011;45901;47.600;9.890;2023-01-19T19:16:41;17.50;;;8.93;;
60030;SDS011;45901;47.600;9.890;2023-01-19T19:19:09;18.13;;;9.23;;
60030;SDS011;45901;47.600;9.890;2023-01-19T19:21:39;16.03;;;8.50;;
60030;SDS011;45901;47.600;9.890;2023-01-19T19:24:07;12.20;;;6.87;;
60030;SDS011;45901;47.600;9.890;2023-01-19T19:26:39;12.60;;;6.50;;
60030;SDS011;45901;47.600;9.890;2023-01-19T19:29:07;10.53;;;5.50;;
60030;SDS011;45901;47.600;9.890;2023-01-19T19:31:41;9.33;;;5.47;;
60030;SDS011;45901;47.600;9.890;2023-01-19T19:38:24;11.33;;;6.40;;
60030;SDS011;45901;47.600;9.890;2023-01-19T19:40:53;14.40;;;7.23;;
60030;SDS011;45901;47.600;9.890;2023-01-19T19:43:23;12.37;;;7.13;;
60030;SDS011;45901;47.600;9.890;2023-01-19T19:45:57;10.87;;;5.23;;
60030;SDS011;45901;47.600;9.890;2023-01-19T19:48:25;10.10;;;5.73;;
60030;SDS011;45901;47.600;9.890;2023-01-19T19:50:53;11.97;;;5.30;;
60030;SDS011;45901;47.600;9.890;2023-01-19T19:53:21;9.30;;;5.03;;
60030;SDS011;45901;47.600;9.890;2023-01-19T20:04:27;10.73;;;4.93;;
60030;SDS011;45901;47.600;9.890;2023-01-19T20:29:41;12.93;;;5.60;;
60030;SDS011;45901;47.600;9.890;2023-01-19T20:36:16;9.80;;;5.47;;